This is the latest recevied weather packets stored in our database for station/object EW2905. If no packets are shown the sender has not sent any weather packets the latest 10 day(s).
| Time | Temp. | Humidity | Pressure | Rain* | Wind** | Luminosity | Snow |
|---|---|---|---|---|---|---|---|
| 1777748436 | 11.67° C | 64% | 1019.7 hPa | 0 mm | - | - | - |
| 1777747535 | 12.78° C | 62% | 1019.7 hPa | 0 mm | - | - | - |
| 1777746815 | 12.78° C | 64% | 1019.7 hPa | 0 mm | - | - | - |
| 1777744296 | 24.44° C | 24% | 1019.7 hPa | 0 mm | - | - | - |
| 1777736915 | 24.44° C | 24% | 1020.2 hPa | 0 mm | - | - | - |
| 1777736735 | 24.44° C | 25% | 1021.2 hPa | 0 mm | - | - | - |
| 1777736556 | 24.44° C | 27% | 1021.2 hPa | 0 mm | - | - | - |
| 1777736376 | 23.89° C | 25% | 1021.2 hPa | 0 mm | - | - | - |
| 1777736196 | 23.89° C | 28% | 1021.2 hPa | 0 mm | - | - | - |
| 1777736016 | 23.89° C | 27% | 1021.2 hPa | 0 mm | - | - | - |
| 1777735836 | 23.89° C | 25% | 1021.2 hPa | 0 mm | - | - | - |
| 1777735655 | 23.33° C | 25% | 1021.2 hPa | 0 mm | - | - | - |
| 1777735475 | 23.89° C | 25% | 1021.2 hPa | 0 mm | - | - | - |
| 1777735295 | 25.56° C | 24% | 1021.2 hPa | 0 mm | - | - | - |
| 1777735116 | 25.56° C | 25% | 1021.2 hPa | 0 mm | - | - | - |
| 1777734936 | 25° C | 25% | 1021.2 hPa | 0 mm | - | - | - |
| 1777734755 | 24.44° C | 24% | 1021.2 hPa | 0 mm | - | - | - |
| 1777734575 | 23.89° C | 25% | 1021.2 hPa | 0 mm | - | - | - |
| 1777734396 | 24.44° C | 25% | 1021.2 hPa | 0 mm | - | - | - |
| 1777734215 | 24.44° C | 25% | 1021.2 hPa | 0 mm | - | - | - |
| 1777734036 | 24.44° C | 27% | 1021.2 hPa | 0 mm | - | - | - |
| 1777733856 | 24.44° C | 25% | 1021.2 hPa | 0 mm | - | - | - |
| 1777733675 | 23.89° C | 28% | 1021.2 hPa | 0 mm | - | - | - |
| 1777733496 | 23.89° C | 26% | 1021.2 hPa | 0 mm | - | - | - |
| 1777733316 | 24.44° C | 27% | 1021.2 hPa | 0 mm | - | - | - |
* Rain latest hour (hover to see other rain measurements)
** Current wind speed in m/s (hover to see current wind gust speed)